Rothorn — V2AY3 — position and weather

sailwx.info

Track history (hours):
 
Tides and Currents Weather Stations Pressure Air Temp Water Temp Dewpoint Dewpoint Depression Visibility Wind Speed Wind Dir Waves Ship Positions

Rothorn

Last reported at 2018-Jun-22 08:22 UTC. Time now 2018-Jun-22 15:20 UTC.
Position N 09°27' W 079°54'.

Length 157.1 m; beam 23.5 m; draft 9.3 m.

Type: Cargo ship. MMSI: 304128000.

Date/timePositionNaut miles runAvg speedWind from/ knotsBaromVisibWave heightAir tempDewpointWater temp
2018-Jun-22 08:22N 09°27' W 079°54'412.3
2018-Jun-22 08:00N 09°22' W 079°54'1 1.9
2018-Jun-22 07:28N 09°21' W 079°53'0 0.0
2018-Jun-22 06:58N 09°21' W 079°53'0 0.0
2018-Jun-22 06:28N 09°21' W 079°53'0 0.0
2018-Jun-22 05:58N 09°21' W 079°53'0 0.0
2018-Jun-22 05:28N 09°21' W 079°53'0 0.0
2018-Jun-22 04:55N 09°21' W 079°53'0 0.0
2018-Jun-22 04:25N 09°21' W 079°53'0 0.0
2018-Jun-22 03:58N 09°21' W 079°53'0 0.0
2018-Jun-22 03:07N 09°21' W 079°53'0 0.0
2018-Jun-22 02:59N 09°21' W 079°53'0 0.0
2018-Jun-22 02:28N 09°21' W 079°53'0 0.2
2018-Jun-22 02:00N 09°22' W 079°53'2 3.7
2018-Jun-22 01:30N 09°23' W 079°54'  
2018-Jun-18 20:30N 25°46' W 079°47'813.8
2018-Jun-18 19:54N 25°53' W 079°52'614.0
2018-Jun-18 19:30N 25°57' W 079°56'714.3
2018-Jun-18 19:00N 26°03' W 080°01'611.8
2018-Jun-18 18:30N 26°06' W 080°06'2 2.7
2018-Jun-18 17:51N 26°04' W 080°07'0 0.0
2018-Jun-18 17:24N 26°04' W 080°07'0 0.0
2018-Jun-18 16:54N 26°04' W 080°07'0 0.0
2018-Jun-18 16:27N 26°04' W 080°07'0 0.0
2018-Jun-18 15:57N 26°04' W 080°07'0 0.0
2018-Jun-18 15:27N 26°04' W 080°07'0 0.0
2018-Jun-18 14:39N 26°04' W 080°07'0 0.0
2018-Jun-18 14:27N 26°04' W 080°07'0 0.0
2018-Jun-18 14:00N 26°04' W 080°07'0 0.0
2018-Jun-18 13:30N 26°04' W 080°07'0 0.0
2018-Jun-18 13:00N 26°04' W 080°07'0 0.0
2018-Jun-18 12:30N 26°04' W 080°07'0 0.0
2018-Jun-18 11:57N 26°04' W 080°07'0 0.0
2018-Jun-18 11:30N 26°04' W 080°07'0 0.0
2018-Jun-18 11:00N 26°04' W 080°07'0 0.0
2018-Jun-18 10:30N 26°04' W 080°07'0 0.0
2018-Jun-18 09:48N 26°04' W 080°07'0 0.0
2018-Jun-18 09:15N 26°04' W 080°07'0 0.0
2018-Jun-18 09:00N 26°04' W 080°07'0 0.0
2018-Jun-18 08:30N 26°04' W 080°07'0 0.0
2018-Jun-18 08:00N 26°04' W 080°07'0 0.0
2018-Jun-18 07:21N 26°04' W 080°07'0 0.0
2018-Jun-18 06:51N 26°04' W 080°07'0 0.0
2018-Jun-18 06:18N 26°04' W 080°07'0 0.0
2018-Jun-18 05:51N 26°04' W 080°07'0 0.0
2018-Jun-18 05:24N 26°04' W 080°07'0 0.0
2018-Jun-18 04:54N 26°04' W 080°07'0 0.0
2018-Jun-18 04:21N 26°04' W 080°07'0 0.0
2018-Jun-18 03:54N 26°04' W 080°07'0 0.0
2018-Jun-18 03:24N 26°04' W 080°07'0 0.0
2018-Jun-18 02:54N 26°04' W 080°07'0 0.0
2018-Jun-18 02:27N 26°04' W 080°07'0 0.0
2018-Jun-18 01:57N 26°04' W 080°07'0 0.0
2018-Jun-18 01:27N 26°04' W 080°07'0 0.0
2018-Jun-18 00:57N 26°04' W 080°07'0 0.0
2018-Jun-18 00:24N 26°04' W 080°07'0 0.0
2018-Jun-18 00:00N 26°04' W 080°07'0 0.0
2018-Jun-17 23:30N 26°04' W 080°07'0 0.0
2018-Jun-17 23:00N 26°04' W 080°07'0 0.2
2018-Jun-17 22:30N 26°04' W 080°07'0 0.1
2018-Jun-17 22:00N 26°04' W 080°07'0 0.0
2018-Jun-17 21:27N 26°04' W 080°07'0 0.0
2018-Jun-17 21:00N 26°04' W 080°07'0 0.0
2018-Jun-17 20:30N 26°04' W 080°07'0 0.0
2018-Jun-17 20:00N 26°04' W 080°07'0 0.0
2018-Jun-17 19:30N 26°04' W 080°07'0 0.0
2018-Jun-17 19:00N 26°04' W 080°07'0 0.0
2018-Jun-17 18:30N 26°04' W 080°07'0 0.0
2018-Jun-17 18:00N 26°04' W 080°07'0 0.3
2018-Jun-17 17:30N 26°04' W 080°07'0 0.0
2018-Jun-17 17:00N 26°04' W 080°07'0 0.0
2018-Jun-17 16:30N 26°04' W 080°07'0 0.0
2018-Jun-17 16:00N 26°04' W 080°07'0 0.0
2018-Jun-17 15:30N 26°04' W 080°07'0 0.0
2018-Jun-17 15:00N 26°04' W 080°07'2 3.1
2018-Jun-17 14:29N 26°06' W 080°07'4 8.8
2018-Jun-17 14:00N 26°05' W 080°02'510.2
2018-Jun-17 13:30N 26°02' W 079°58'816.7
2018-Jun-17 13:01N 25°54' W 079°54'917.4
2018-Jun-17 12:31N 25°47' W 079°49'  
Track history (hours):
 
Tides and Currents Weather Stations Pressure Air Temp Water Temp Dewpoint Dewpoint Depression Visibility Wind Speed Wind Dir Waves Ship Positions

Rothorn

Last reported at 2018-Jun-22 08:22 UTC. Time now 2018-Jun-22 15:20 UTC.
Position N 09°27' W 079°54'.

Length 157.1 m; beam 23.5 m; draft 9.3 m.

Type: Cargo ship. MMSI: 304128000.

Date/timePositionNaut miles runAvg speedWind from/ knotsBaromVisibWave heightAir tempDewpointWater temp
2018-Jun-22 08:22N 09°27' W 079°54'412.3
2018-Jun-22 08:00N 09°22' W 079°54'1 1.9
2018-Jun-22 07:28N 09°21' W 079°53'0 0.0
2018-Jun-22 06:58N 09°21' W 079°53'0 0.0
2018-Jun-22 06:28N 09°21' W 079°53'0 0.0
2018-Jun-22 05:58N 09°21' W 079°53'0 0.0
2018-Jun-22 05:28N 09°21' W 079°53'0 0.0
2018-Jun-22 04:55N 09°21' W 079°53'0 0.0
2018-Jun-22 04:25N 09°21' W 079°53'0 0.0
2018-Jun-22 03:58N 09°21' W 079°53'0 0.0
2018-Jun-22 03:07N 09°21' W 079°53'0 0.0
2018-Jun-22 02:59N 09°21' W 079°53'0 0.0
2018-Jun-22 02:28N 09°21' W 079°53'0 0.2
2018-Jun-22 02:00N 09°22' W 079°53'2 3.7
2018-Jun-22 01:30N 09°23' W 079°54'  
2018-Jun-18 20:30N 25°46' W 079°47'813.8
2018-Jun-18 19:54N 25°53' W 079°52'614.0
2018-Jun-18 19:30N 25°57' W 079°56'714.3
2018-Jun-18 19:00N 26°03' W 080°01'611.8
2018-Jun-18 18:30N 26°06' W 080°06'2 2.7
2018-Jun-18 17:51N 26°04' W 080°07'0 0.0
2018-Jun-18 17:24N 26°04' W 080°07'0 0.0
2018-Jun-18 16:54N 26°04' W 080°07'0 0.0
2018-Jun-18 16:27N 26°04' W 080°07'0 0.0
2018-Jun-18 15:57N 26°04' W 080°07'0 0.0
2018-Jun-18 15:27N 26°04' W 080°07'0 0.0
2018-Jun-18 14:39N 26°04' W 080°07'0 0.0
2018-Jun-18 14:27N 26°04' W 080°07'0 0.0
2018-Jun-18 14:00N 26°04' W 080°07'0 0.0
2018-Jun-18 13:30N 26°04' W 080°07'0 0.0
2018-Jun-18 13:00N 26°04' W 080°07'0 0.0
2018-Jun-18 12:30N 26°04' W 080°07'0 0.0
2018-Jun-18 11:57N 26°04' W 080°07'0 0.0
2018-Jun-18 11:30N 26°04' W 080°07'0 0.0
2018-Jun-18 11:00N 26°04' W 080°07'0 0.0
2018-Jun-18 10:30N 26°04' W 080°07'0 0.0
2018-Jun-18 09:48N 26°04' W 080°07'0 0.0
2018-Jun-18 09:15N 26°04' W 080°07'0 0.0
2018-Jun-18 09:00N 26°04' W 080°07'0 0.0
2018-Jun-18 08:30N 26°04' W 080°07'0 0.0
2018-Jun-18 08:00N 26°04' W 080°07'0 0.0
2018-Jun-18 07:21N 26°04' W 080°07'0 0.0
2018-Jun-18 06:51N 26°04' W 080°07'0 0.0
2018-Jun-18 06:18N 26°04' W 080°07'0 0.0
2018-Jun-18 05:51N 26°04' W 080°07'0 0.0
2018-Jun-18 05:24N 26°04' W 080°07'0 0.0
2018-Jun-18 04:54N 26°04' W 080°07'0 0.0
2018-Jun-18 04:21N 26°04' W 080°07'0 0.0
2018-Jun-18 03:54N 26°04' W 080°07'0 0.0
2018-Jun-18 03:24N 26°04' W 080°07'0 0.0
2018-Jun-18 02:54N 26°04' W 080°07'0 0.0
2018-Jun-18 02:27N 26°04' W 080°07'0 0.0
2018-Jun-18 01:57N 26°04' W 080°07'0 0.0
2018-Jun-18 01:27N 26°04' W 080°07'0 0.0
2018-Jun-18 00:57N 26°04' W 080°07'0 0.0
2018-Jun-18 00:24N 26°04' W 080°07'0 0.0
2018-Jun-18 00:00N 26°04' W 080°07'0 0.0
2018-Jun-17 23:30N 26°04' W 080°07'0 0.0
2018-Jun-17 23:00N 26°04' W 080°07'0 0.2
2018-Jun-17 22:30N 26°04' W 080°07'0 0.1
2018-Jun-17 22:00N 26°04' W 080°07'0 0.0
2018-Jun-17 21:27N 26°04' W 080°07'0 0.0
2018-Jun-17 21:00N 26°04' W 080°07'0 0.0
2018-Jun-17 20:30N 26°04' W 080°07'0 0.0
2018-Jun-17 20:00N 26°04' W 080°07'0 0.0
2018-Jun-17 19:30N 26°04' W 080°07'0 0.0
2018-Jun-17 19:00N 26°04' W 080°07'0 0.0
2018-Jun-17 18:30N 26°04' W 080°07'0 0.0
2018-Jun-17 18:00N 26°04' W 080°07'0 0.3
2018-Jun-17 17:30N 26°04' W 080°07'0 0.0
2018-Jun-17 17:00N 26°04' W 080°07'0 0.0
2018-Jun-17 16:30N 26°04' W 080°07'0 0.0
2018-Jun-17 16:00N 26°04' W 080°07'0 0.0
2018-Jun-17 15:30N 26°04' W 080°07'0 0.0
2018-Jun-17 15:00N 26°04' W 080°07'2 3.1
2018-Jun-17 14:29N 26°06' W 080°07'4 8.8
2018-Jun-17 14:00N 26°05' W 080°02'510.2
2018-Jun-17 13:30N 26°02' W 079°58'816.7
2018-Jun-17 13:01N 25°54' W 079°54'917.4
2018-Jun-17 12:31N 25°47' W 079°49'  

Dump ship's entire track history